Back to Top

Language: 

My Weather Underground Personal Weather Station Historical Data with Graphs...

Delerius Weather Station Historical Data
Daily Summary for March 26, 2017 Units:  Metric    English   Both
« Previous Day
Next Day »
Daily Weekly Monthly Yearly Custom
  High: Low: Average:
Temperature: 14.4 °C -0.8 °C 7.1 °C
Dew Point: 4.9 °C -2.4 °C 1.6 °C
Humidity: 91 % 44 % 70 %
Wind Speed: 12.9 km/h 0 km/h 4.7 km/h
Wind Gust: 25.7 km/h - -
Wind:- - East
Pressure: 1029.3 hPa 1025.6 hPa -
Precipitation: 0 mm    
Historical Graphs
 
 
Tabular Data for March 26, 2017
Time Temperature Dew Point Pressure Wind Wind Speed Wind Gust Humidity Rainfall Rate (Hourly) solar Conditions
00:04 1.9 °C -0.8 °C 1029.3 hPa Calm     82 % 0 mm 0 W/m2
00:09 1.8 °C -0.9 °C 1029.3 hPa Calm     82 % 0 mm 0 W/m2
00:14 1.8 °C -0.8 °C 1029.3 hPa Calm     83 % 0 mm 0 W/m2
00:19 1.7 °C -0.9 °C 1029.3 hPa Calm   3.2 km/h 83 % 0 mm 0 W/m2
00:24 1.8 °C -0.8 °C 1029.3 hPa NE 1.6 km/h 3.2 km/h 83 % 0 mm 0 W/m2
00:29 1.8 °C -0.9 °C 1029.3 hPa NE 1.6 km/h 3.2 km/h 82 % 0 mm 0 W/m2
00:30 1.8 °C -0.9 °C 1029.3 hPa NE 1.6 km/h 3.2 km/h 82 % 0 mm 0 W/m2
00:35 1.8 °C -0.9 °C 1029 hPa Calm   3.2 km/h 82 % 0 mm 0 W/m2
00:40 1.8 °C -0.9 °C 1029 hPa Calm   3.2 km/h 82 % 0 mm 0 W/m2
00:45 1.8 °C -0.9 °C 1029 hPa Calm   3.2 km/h 82 % 0 mm 0 W/m2
00:50 1.8 °C -0.8 °C 1029 hPa Calm     83 % 0 mm 0 W/m2
00:55 1.7 °C -1.1 °C 1029 hPa Calm     82 % 0 mm 0 W/m2
02:00 1.5 °C -1.2 °C 1028.7 hPa Calm     82 % 0 mm 0 W/m2
02:05 1.3 °C -1.4 °C 1028.7 hPa Calm     82 % 0 mm 0 W/m2
02:10 1.2 °C -1.4 °C 1028.7 hPa Calm     83 % 0 mm 0 W/m2
02:20 1 °C -1.4 °C 1029 hPa Calm     84 % 0 mm 0 W/m2
02:25 0.9 °C -1.5 °C 1028.7 hPa Calm     84 % 0 mm 0 W/m2
02:30 0.9 °C -1.5 °C 1028.7 hPa Calm     84 % 0 mm 0 W/m2
02:35 0.9 °C -1.5 °C 1028.7 hPa Calm     84 % 0 mm 0 W/m2
02:41 0.8 °C -1.6 °C 1028.7 hPa Calm     84 % 0 mm 0 W/m2
02:42 0.8 °C -1.6 °C 1028.7 hPa Calm     84 % 0 mm 0 W/m2
02:47 0.7 °C -1.7 °C 1028.7 hPa Calm     84 % 0 mm 0 W/m2
02:52 0.6 °C -1.8 °C 1028.7 hPa Calm     84 % 0 mm 0 W/m2
02:57 0.6 °C -1.6 °C 1028.3 hPa Calm     85 % 0 mm 0 W/m2
03:02 0.6 °C -1.6 °C 1028.3 hPa Calm   3.2 km/h 85 % 0 mm 0 W/m2
03:07 0.5 °C -1.7 °C 1028.3 hPa Calm   3.2 km/h 85 % 0 mm 0 W/m2
03:12 0.4 °C -1.8 °C 1028.3 hPa Calm     85 % 0 mm 0 W/m2
03:17 0.4 °C -1.7 °C 1028.3 hPa Calm     86 % 0 mm 0 W/m2
03:22 0.4 °C -1.7 °C 1028.7 hPa Calm     86 % 0 mm 0 W/m2
03:32 0.3 °C -1.8 °C 1028.3 hPa Calm   1.6 km/h 86 % 0 mm 0 W/m2
03:37 0.3 °C -1.8 °C 1028.3 hPa Calm   1.6 km/h 86 % 0 mm 0 W/m2
03:42 0.3 °C -1.8 °C 1028.3 hPa Calm     86 % 0 mm 0 W/m2
03:47 0.2 °C -1.9 °C 1028.3 hPa Calm     86 % 0 mm 0 W/m2
03:52 0.2 °C -1.7 °C 1028.3 hPa Calm     87 % 0 mm 0 W/m2
03:57 0.2 °C -1.7 °C 1028.3 hPa Calm     87 % 0 mm 0 W/m2
04:02 0.2 °C -1.7 °C 1028.3 hPa Calm     87 % 0 mm 0 W/m2
04:03 0.2 °C -1.7 °C 1028.3 hPa Calm     87 % 0 mm 0 W/m2
04:08 0.1 °C -1.8 °C 1028.3 hPa Calm     87 % 0 mm 0 W/m2
04:13 0.1 °C -1.8 °C 1028.3 hPa Calm     87 % 0 mm 0 W/m2
04:18 0.1 °C -1.8 °C 1028 hPa Calm     87 % 0 mm 0 W/m2
04:23 0 °C -1.9 °C 1028 hPa Calm     87 % 0 mm 0 W/m2
04:28 -0.1 °C -2 °C 1028 hPa Calm     87 % 0 mm 0 W/m2
04:33 -0.1 °C -1.8 °C 1028 hPa Calm     88 % 0 mm 0 W/m2
04:38 -0.2 °C -1.9 °C 1028.3 hPa Calm     88 % 0 mm 0 W/m2
04:43 -0.2 °C -1.9 °C 1028.3 hPa Calm     88 % 0 mm 0 W/m2
04:48 -0.3 °C -2.1 °C 1028.3 hPa Calm     88 % 0 mm 0 W/m2
04:53 -0.3 °C -2.1 °C 1028 hPa Calm     88 % 0 mm 0 W/m2
04:58 -0.3 °C -2.1 °C 1028 hPa Calm     88 % 0 mm 0 W/m2
05:03 -0.4 °C -2 °C 1028 hPa Calm     89 % 0 mm 0 W/m2
05:08 -0.4 °C -2.2 °C 1028 hPa Calm     88 % 0 mm 0 W/m2
05:13 -0.3 °C -1.9 °C 1028 hPa Calm     89 % 0 mm 0 W/m2
05:18 -0.3 °C -1.9 °C 1028 hPa Calm   3.2 km/h 89 % 0 mm 0 W/m2
05:23 -0.3 °C -1.9 °C 1028 hPa NNE 1.6 km/h 3.2 km/h 89 % 0 mm 0 W/m2
05:28 -0.4 °C -2 °C 1028 hPa Calm   3.2 km/h 89 % 0 mm 0 W/m2
05:33 -0.4 °C -2 °C 1028 hPa Calm     89 % 0 mm 0 W/m2
05:38 -0.4 °C -2 °C 1028 hPa Calm     89 % 0 mm 0 W/m2
05:43 -0.4 °C -2 °C 1028 hPa Calm     89 % 0 mm 0 W/m2
05:48 -0.4 °C -2 °C 1028 hPa Calm     89 % 0 mm 0 W/m2
05:53 -0.4 °C -2 °C 1027.7 hPa Calm     89 % 0 mm 0 W/m2
05:58 -0.4 °C -2 °C 1028 hPa Calm     89 % 0 mm 0 W/m2
06:03 -0.4 °C -2 °C 1028 hPa Calm     89 % 0 mm 0 W/m2
06:08 -0.5 °C -2.1 °C 1028 hPa Calm     89 % 0 mm 0 W/m2
06:13 -0.6 °C -2.2 °C 1028 hPa Calm     89 % 0 mm 0 W/m2
06:19 -0.6 °C -2.2 °C 1028 hPa Calm     89 % 0 mm 0 W/m2
06:29 -0.6 °C -2.2 °C 1028 hPa Calm     89 % 0 mm 0 W/m2
06:34 -0.7 °C -2.3 °C 1028 hPa Calm     89 % 0 mm 0 W/m2
06:39 -0.7 °C -2.3 °C 1028 hPa Calm     89 % 0 mm 0 W/m2
06:44 -0.8 °C -2.4 °C 1028 hPa Calm     89 % 0 mm 5 W/m2
06:49 -0.7 °C -2.1 °C 1028 hPa Calm     90 % 0 mm 0 W/m2
06:54 -0.7 °C -2.1 °C 1028 hPa Calm     90 % 0 mm 0 W/m2
06:59 -0.7 °C -2.1 °C 1028 hPa Calm     90 % 0 mm 5 W/m2
07:04 -0.7 °C -2.1 °C 1028 hPa Calm     90 % 0 mm 7 W/m2
07:09 -0.7 °C -2.1 °C 1028 hPa Calm     90 % 0 mm 12 W/m2
07:14 -0.7 °C -2.1 °C 1028.3 hPa Calm     90 % 0 mm 18 W/m2
07:19 -0.7 °C -2.1 °C 1028 hPa Calm     90 % 0 mm 23 W/m2
07:24 -0.7 °C -2.1 °C 1028.3 hPa Calm     90 % 0 mm 28 W/m2
07:29 -0.6 °C -2.1 °C 1028.3 hPa Calm     90 % 0 mm 33 W/m2
07:34 -0.5 °C -1.9 °C 1028.3 hPa Calm     90 % 0 mm 40 W/m2
07:39 -0.4 °C -1.8 °C 1028.3 hPa Calm     90 % 0 mm 47 W/m2
07:44 -0.4 °C -1.8 °C 1028.3 hPa Calm     90 % 0 mm 51 W/m2
07:49 -0.3 °C -1.6 °C 1028.3 hPa Calm     91 % 0 mm 56 W/m2
07:54 -0.2 °C -1.5 °C 1028.3 hPa Calm   3.2 km/h 91 % 0 mm 62 W/m2
07:59 0 °C -1.3 °C 1028.3 hPa Calm   3.2 km/h 91 % 0 mm 70 W/m2
08:04 0.3 °C -1 °C 1028.3 hPa Calm   3.2 km/h 91 % 0 mm 114 W/m2
08:09 0.5 °C -0.8 °C 1028.3 hPa Calm     91 % 0 mm 128 W/m2
08:14 0.7 °C -0.6 °C 1028.3 hPa Calm     91 % 0 mm 135 W/m2
08:19 1.2 °C -0.1 °C 1028.3 hPa Calm     91 % 0 mm 151 W/m2
08:24 1.6 °C 0 °C 1028.7 hPa Calm     89 % 0 mm 160 W/m2
08:29 1.9 °C 0.1 °C 1028.7 hPa Calm     88 % 0 mm 162 W/m2
08:34 2.4 °C 0.4 °C 1028.7 hPa Calm     87 % 0 mm 186 W/m2
08:39 2.9 °C 0.6 °C 1028.3 hPa Calm     85 % 0 mm 188 W/m2
08:44 3.3 °C 0.8 °C 1028.3 hPa Calm   1.6 km/h 84 % 0 mm 227 W/m2
08:49 3.8 °C 1.2 °C 1028.3 hPa Calm   1.6 km/h 83 % 0 mm 262 W/m2
08:54 4.1 °C 1.1 °C 1028.3 hPa Calm   1.6 km/h 81 % 0 mm 288 W/m2
08:59 4.4 °C 1.2 °C 1028.3 hPa Calm     80 % 0 mm 294 W/m2
09:04 4.6 °C 1.4 °C 1028.3 hPa Calm     80 % 0 mm 309 W/m2
09:09 4.8 °C 1.8 °C 1028.3 hPa Calm     81 % 0 mm 320 W/m2
09:14 5.3 °C 2.1 °C 1028.3 hPa Calm   1.6 km/h 80 % 0 mm 327 W/m2
09:19 5.8 °C 2.3 °C 1028.3 hPa Calm   1.6 km/h 78 % 0 mm 315 W/m2
09:24 6.3 °C 2.6 °C 1028 hPa Calm   1.6 km/h 77 % 0 mm 338 W/m2
09:29 6.7 °C 2.4 °C 1028 hPa Calm   3.2 km/h 74 % 0 mm 348 W/m2
09:34 7.1 °C 2.2 °C 1028 hPa NW 1.6 km/h 6.4 km/h 71 % 0 mm 388 W/m2
09:39 7.3 °C 2.2 °C 1028 hPa WNW 1.6 km/h 6.4 km/h 70 % 0 mm 385 W/m2
09:44 7.7 °C 2.2 °C 1028 hPa Calm   3.2 km/h 68 % 0 mm 404 W/m2
09:49 8.4 °C 2.4 °C 1028.3 hPa Calm   1.6 km/h 66 % 0 mm 362 W/m2
09:54 8.8 °C 2.3 °C 1028.3 hPa Calm   3.2 km/h 64 % 0 mm 396 W/m2
09:59 9.1 °C 1.9 °C 1028.3 hPa NNE 3.2 km/h 11.3 km/h 61 % 0 mm 438 W/m2
10:04 9.1 °C 1.7 °C 1028.3 hPa NE 4.8 km/h 11.3 km/h 60 % 0 mm 427 W/m2
10:09 9.1 °C 1.5 °C 1028.3 hPa NE 1.6 km/h 9.7 km/h 59 % 0 mm 436 W/m2
10:14 9.3 °C 1.7 °C 1028.3 hPa NE 1.6 km/h 8 km/h 59 % 0 mm 443 W/m2
10:19 9.4 °C 1.8 °C 1028.3 hPa NE 1.6 km/h 8 km/h 59 % 0 mm 469 W/m2
10:24 9.6 °C 1.7 °C 1028.3 hPa NE 1.6 km/h 8 km/h 58 % 0 mm 490 W/m2
10:29 9.7 °C 1.6 °C 1028.3 hPa NE 3.2 km/h 9.7 km/h 57 % 0 mm 464 W/m2
10:34 9.6 °C 1.7 °C 1028.3 hPa ENE 3.2 km/h 9.7 km/h 58 % 0 mm 508 W/m2
10:39 9.7 °C 2.1 °C 1028.3 hPa NE 1.6 km/h 9.7 km/h 59 % 0 mm 490 W/m2
10:44 10.1 °C 2.2 °C 1028 hPa NE 1.6 km/h 6.4 km/h 58 % 0 mm 531 W/m2
10:49 10.3 °C 2.4 °C 1028 hPa Calm   6.4 km/h 58 % 0 mm 548 W/m2
10:54 10.6 °C 2.7 °C 1028.3 hPa NE 1.6 km/h 11.3 km/h 58 % 0 mm 534 W/m2
10:59 10.7 °C 2.5 °C 1028 hPa ENE 3.2 km/h 11.3 km/h 57 % 0 mm 566 W/m2
11:04 10.8 °C 2.8 °C 1028 hPa East 3.2 km/h 9.7 km/h 58 % 0 mm 582 W/m2
11:09 10.9 °C 2.7 °C 1028 hPa ENE 3.2 km/h 11.3 km/h 57 % 0 mm 596 W/m2
11:14 10.8 °C 2.8 °C 1028 hPa NE 6.4 km/h 14.5 km/h 58 % 0 mm 603 W/m2
11:19 10.7 °C 2.8 °C 1028 hPa NE 8 km/h 14.5 km/h 58 % 0 mm 612 W/m2
11:24 10.7 °C 3 °C 1028.3 hPa NE 6.4 km/h 14.5 km/h 59 % 0 mm 610 W/m2
11:29 10.8 °C 3.1 °C 1028 hPa ENE 6.4 km/h 14.5 km/h 59 % 0 mm 603 W/m2
11:34 11.1 °C 3.6 °C 1028 hPa ENE 4.8 km/h 14.5 km/h 60 % 0 mm 612 W/m2
11:37 11.2 °C 3.5 °C 1028 hPa ENE 3.2 km/h 12.9 km/h 59 % 0 mm 615 W/m2
11:42 11.5 °C 3.5 °C 1028 hPa NE 3.2 km/h 14.5 km/h 58 % 0 mm 610 W/m2
11:47 11.8 °C 3.6 °C 1028 hPa ENE 4.8 km/h 14.5 km/h 57 % 0 mm 636 W/m2
11:52 12.1 °C 3.3 °C 1028 hPa East 6.4 km/h 14.5 km/h 55 % 0 mm 657 W/m2
11:57 12.1 °C 3.3 °C 1028 hPa East 6.4 km/h 14.5 km/h 55 % 0 mm 640 W/m2
12:02 12.1 °C 3.6 °C 1028 hPa East 6.4 km/h 12.9 km/h 56 % 0 mm 631 W/m2
12:07 12.2 °C 3.4 °C 1027.7 hPa ENE 8 km/h 14.5 km/h 55 % 0 mm 677 W/m2
12:12 12.3 °C 3.5 °C 1027.7 hPa ENE 6.4 km/h 14.5 km/h 55 % 0 mm 633 W/m2
12:17 12.4 °C 3.6 °C 1027.7 hPa East 6.4 km/h 11.3 km/h 55 % 0 mm 663 W/m2
12:18 12.6 °C 3.6 °C 1027.7 hPa ENE 6.4 km/h 14.5 km/h 54 % 0 mm 657 W/m2
12:23 12.4 °C 2.6 °C 1027.7 hPa ENE 8 km/h 17.7 km/h 51 % 0 mm 642 W/m2
12:28 12.6 °C 3 °C 1027.7 hPa East 9.7 km/h 19.3 km/h 52 % 0 mm 661 W/m2
12:33 12.6 °C 3 °C 1027.7 hPa East 8 km/h 19.3 km/h 52 % 0 mm 661 W/m2
12:39 12.6 °C 3.3 °C 1027.7 hPa ENE 8 km/h 16.1 km/h 53 % 0 mm 654 W/m2
12:44 12.7 °C 3.3 °C 1027.7 hPa East 8 km/h 14.5 km/h 53 % 0 mm 664 W/m2
12:49 12.7 °C 3.6 °C 1027.7 hPa ENE 8 km/h 14.5 km/h 54 % 0 mm 659 W/m2
12:54 12.8 °C 3.4 °C 1027.7 hPa East 8 km/h 16.1 km/h 53 % 0 mm 691 W/m2
12:59 12.9 °C 3.8 °C 1027.3 hPa East 9.7 km/h 20.9 km/h 54 % 0 mm 707 W/m2
13:04 13.2 °C 4.1 °C 1027.3 hPa East 9.7 km/h 20.9 km/h 54 % 0 mm 666 W/m2
13:09 13.1 °C 3.4 °C 1027.3 hPa East 8 km/h 17.7 km/h 52 % 0 mm 684 W/m2
13:14 13.1 °C 3.7 °C 1027.3 hPa East 9.7 km/h 17.7 km/h 53 % 0 mm 684 W/m2
13:19 13.4 °C 4.3 °C 1027.3 hPa East 8 km/h 16.1 km/h 54 % 0 mm 679 W/m2
13:24 13.5 °C 3.3 °C 1027.3 hPa ENE 8 km/h 17.7 km/h 50 % 0 mm 679 W/m2
13:29 13.6 °C 3.1 °C 1027 hPa NE 9.7 km/h 17.7 km/h 49 % 0 mm 656 W/m2
13:34 13.7 °C 2.9 °C 1027 hPa ENE 9.7 km/h 17.7 km/h 48 % 0 mm 652 W/m2
13:39 13.7 °C 2.9 °C 1027 hPa ENE 8 km/h 16.1 km/h 48 % 0 mm 638 W/m2
13:44 13.8 °C 3.3 °C 1027 hPa ENE 8 km/h 17.7 km/h 49 % 0 mm 599 W/m2
13:49 13.8 °C 2.9 °C 1027 hPa ENE 8 km/h 17.7 km/h 48 % 0 mm 622 W/m2
13:54 13.8 °C 3.3 °C 1027 hPa ENE 8 km/h 20.9 km/h 49 % 0 mm 640 W/m2
13:59 14 °C 2.8 °C 1027 hPa East 8 km/h 20.9 km/h 47 % 0 mm 613 W/m2
14:04 14.1 °C 2.9 °C 1027 hPa ENE 9.7 km/h 16.1 km/h 47 % 0 mm 573 W/m2
14:09 14 °C 3.2 °C 1026.6 hPa ENE 11.3 km/h 25.7 km/h 48 % 0 mm 647 W/m2
14:14 14.1 °C 3.8 °C 1026.6 hPa ENE 9.7 km/h 25.7 km/h 50 % 0 mm 647 W/m2
14:19 14.2 °C 3.3 °C 1026.6 hPa ENE 8 km/h 19.3 km/h 48 % 0 mm 631 W/m2
14:24 13.9 °C 3.1 °C 1026.6 hPa ENE 9.7 km/h 19.3 km/h 48 % 0 mm 587 W/m2
14:29 14 °C 3.2 °C 1026.6 hPa ENE 6.4 km/h 16.1 km/h 48 % 0 mm 534 W/m2
14:34 14.1 °C 3.2 °C 1026.6 hPa ENE 8 km/h 16.1 km/h 48 % 0 mm 566 W/m2
14:39 14.2 °C 2.7 °C 1026.6 hPa ENE 8 km/h 16.1 km/h 46 % 0 mm 575 W/m2
14:44 14.2 °C 2.7 °C 1026.6 hPa East 8 km/h 16.1 km/h 46 % 0 mm 478 W/m2
14:49 14.3 °C 2.5 °C 1026.3 hPa East 8 km/h 17.7 km/h 45 % 0 mm 504 W/m2
14:54 14.3 °C 2.5 °C 1026.3 hPa East 8 km/h 17.7 km/h 45 % 0 mm 406 W/m2
14:59 14.1 °C 2.3 °C 1026.6 hPa ENE 8 km/h 17.7 km/h 45 % 0 mm 422 W/m2
15:04 14.1 °C 2.3 °C 1026.3 hPa ENE 8 km/h 19.3 km/h 45 % 0 mm 531 W/m2
15:09 14.1 °C 2 °C 1026.3 hPa ENE 9.7 km/h 20.9 km/h 44 % 0 mm 443 W/m2
15:14 14.2 °C 2.1 °C 1026.3 hPa ENE 9.7 km/h 20.9 km/h 44 % 0 mm 492 W/m2
15:19 14.3 °C 2.5 °C 1026.3 hPa ENE 9.7 km/h 20.9 km/h 45 % 0 mm 506 W/m2
15:24 14.2 °C 2.4 °C 1026.3 hPa ENE 9.7 km/h 24.1 km/h 45 % 0 mm 483 W/m2
15:29 14.3 °C 2.8 °C 1026.3 hPa ENE 9.7 km/h 24.1 km/h 46 % 0 mm 490 W/m2
15:34 14.4 °C 2.9 °C 1026.3 hPa ENE 8 km/h 17.7 km/h 46 % 0 mm 462 W/m2
15:39 14.3 °C 2.5 °C 1026.3 hPa ENE 9.7 km/h 19.3 km/h 45 % 0 mm 499 W/m2
15:44 14.2 °C 2.4 °C 1026.3 hPa East 11.3 km/h 20.9 km/h 45 % 0 mm 461 W/m2
15:49 14.1 °C 2.3 °C 1026.3 hPa East 9.7 km/h 20.9 km/h 45 % 0 mm 471 W/m2
15:54 14.3 °C 2.5 °C 1026 hPa East 8 km/h 16.1 km/h 45 % 0 mm 448 W/m2
15:59 14.3 °C 2.5 °C 1026.3 hPa East 9.7 km/h 17.7 km/h 45 % 0 mm 446 W/m2
16:04 14.3 °C 2.2 °C 1026 hPa East 11.3 km/h 17.7 km/h 44 % 0 mm 431 W/m2
16:09 14.2 °C 2.4 °C 1026 hPa ENE 9.7 km/h 17.7 km/h 45 % 0 mm 396 W/m2
16:14 14.3 °C 2.5 °C 1026 hPa East 9.7 km/h 17.7 km/h 45 % 0 mm 387 W/m2
16:19 14.3 °C 2.5 °C 1026 hPa East 9.7 km/h 17.7 km/h 45 % 0 mm 415 W/m2
16:24 14.3 °C 2.2 °C 1026 hPa East 11.3 km/h 22.5 km/h 44 % 0 mm 346 W/m2
16:29 14.2 °C 2.4 °C 1026 hPa East 11.3 km/h 22.5 km/h 45 % 0 mm 401 W/m2
16:34 14.2 °C 2.4 °C 1026 hPa East 9.7 km/h 17.7 km/h 45 % 0 mm 367 W/m2
16:36 14.2 °C 2.4 °C 1026 hPa East 9.7 km/h 19.3 km/h 45 % 0 mm 397 W/m2
16:41 14.3 °C 2.8 °C 1026 hPa East 8 km/h 19.3 km/h 46 % 0 mm 392 W/m2
16:46 14.3 °C 2.5 °C 1026 hPa East 8 km/h 16.1 km/h 45 % 0 mm 353 W/m2
16:51 14.4 °C 3.2 °C 1025.6 hPa East 8 km/h 16.1 km/h 47 % 0 mm 316 W/m2
16:56 14.4 °C 3.2 °C 1025.6 hPa East 6.4 km/h 16.1 km/h 47 % 0 mm 283 W/m2
17:01 14.3 °C 3.4 °C 1025.6 hPa ENE 8 km/h 16.1 km/h 48 % 0 mm 297 W/m2
17:06 14 °C 3.7 °C 1025.6 hPa ENE 9.7 km/h 16.1 km/h 50 % 0 mm 278 W/m2
17:11 13.8 °C 3.8 °C 1025.6 hPa East 11.3 km/h 19.3 km/h 51 % 0 mm 285 W/m2
17:16 13.7 °C 3.7 °C 1025.6 hPa East 9.7 km/h 19.3 km/h 51 % 0 mm 251 W/m2
17:21 13.7 °C 4 °C 1025.6 hPa East 8 km/h 17.7 km/h 52 % 0 mm 265 W/m2
17:26 13.6 °C 4.2 °C 1025.6 hPa East 8 km/h 16.1 km/h 53 % 0 mm 250 W/m2
17:31 13.4 °C 3.7 °C 1025.6 hPa East 8 km/h 16.1 km/h 52 % 0 mm 227 W/m2
17:36 13.4 °C 3.7 °C 1025.6 hPa East 9.7 km/h 17.7 km/h 52 % 0 mm 227 W/m2
17:41 13.2 °C 3.3 °C 1025.6 hPa East 9.7 km/h 17.7 km/h 51 % 0 mm 213 W/m2
17:46 12.9 °C 3.3 °C 1025.6 hPa East 9.7 km/h 17.7 km/h 52 % 0 mm 158 W/m2
17:51 12.7 °C 3.3 °C 1025.6 hPa East 9.7 km/h 19.3 km/h 53 % 0 mm 120 W/m2
17:56 12.5 °C 3.4 °C 1025.6 hPa East 9.7 km/h 19.3 km/h 54 % 0 mm 88 W/m2
18:01 12.3 °C 3.5 °C 1025.6 hPa East 9.7 km/h 19.3 km/h 55 % 0 mm 74 W/m2
18:07 12 °C 3.2 °C 1025.6 hPa ENE 8 km/h 17.7 km/h 55 % 0 mm 69 W/m2
18:12 11.8 °C 3.6 °C 1025.6 hPa ENE 8 km/h 17.7 km/h 57 % 0 mm 67 W/m2
18:17 11.6 °C 3.1 °C 1025.6 hPa East 8 km/h 19.3 km/h 56 % 0 mm 63 W/m2
18:22 11.4 °C 2.9 °C 1025.6 hPa East 8 km/h 19.3 km/h 56 % 0 mm 60 W/m2
18:27 11.2 °C 2.7 °C 1025.6 hPa East 9.7 km/h 17.7 km/h 56 % 0 mm 54 W/m2
18:32 10.9 °C 2.7 °C 1025.6 hPa ENE 9.7 km/h 20.9 km/h 57 % 0 mm 47 W/m2
18:37 10.8 °C 2.6 °C 1025.6 hPa ENE 9.7 km/h 20.9 km/h 57 % 0 mm 46 W/m2
18:42 10.6 °C 2.4 °C 1025.6 hPa ENE 8 km/h 16.1 km/h 57 % 0 mm 44 W/m2
18:47 10.6 °C 2.7 °C 1025.6 hPa East 6.4 km/h 14.5 km/h 58 % 0 mm 37 W/m2
18:52 10.4 °C 2.7 °C 1026 hPa East 6.4 km/h 14.5 km/h 59 % 0 mm 35 W/m2
18:57 10.2 °C 2.8 °C 1026 hPa ENE 8 km/h 16.1 km/h 60 % 0 mm 32 W/m2
19:02 10.1 °C 2.7 °C 1026 hPa ENE 8 km/h 16.1 km/h 60 % 0 mm 28 W/m2
19:07 9.9 °C 2.7 °C 1026 hPa East 9.7 km/h 17.7 km/h 61 % 0 mm 21 W/m2
19:12 9.8 °C 2.8 °C 1026 hPa ENE 9.7 km/h 17.7 km/h 62 % 0 mm 16 W/m2
19:17 9.7 °C 3 °C 1026 hPa East 6.4 km/h 14.5 km/h 63 % 0 mm 11 W/m2
19:22 9.6 °C 3.1 °C 1026 hPa East 4.8 km/h 14.5 km/h 64 % 0 mm 7 W/m2
19:27 9.4 °C 3.2 °C 1026 hPa East 4.8 km/h 12.9 km/h 65 % 0 mm 0 W/m2
19:32 9.3 °C 3.3 °C 1025.6 hPa ENE 4.8 km/h 12.9 km/h 66 % 0 mm 0 W/m2
19:37 9.2 °C 3.2 °C 1025.6 hPa ENE 6.4 km/h 14.5 km/h 66 % 0 mm 0 W/m2
19:42 9.1 °C 3.3 °C 1026 hPa ENE 6.4 km/h 14.5 km/h 67 % 0 mm 0 W/m2
19:47 8.9 °C 3.1 °C 1026 hPa ENE 4.8 km/h 12.9 km/h 67 % 0 mm 0 W/m2
19:52 8.8 °C 3.2 °C 1026 hPa ENE 4.8 km/h 12.9 km/h 68 % 0 mm 0 W/m2
19:58 8.7 °C 3.1 °C 1026 hPa ENE 6.4 km/h 12.9 km/h 68 % 0 mm 0 W/m2
20:03 8.6 °C 3.2 °C 1026 hPa ENE 4.8 km/h 12.9 km/h 69 % 0 mm 0 W/m2
20:08 8.6 °C 3.2 °C 1026 hPa ENE 4.8 km/h 11.3 km/h 69 % 0 mm 0 W/m2
20:13 8.4 °C 3.2 °C 1026 hPa ENE 4.8 km/h 12.9 km/h 70 % 0 mm 0 W/m2
20:18 8.4 °C 3.2 °C 1026 hPa ENE 6.4 km/h 12.9 km/h 70 % 0 mm 0 W/m2
20:23 8.3 °C 3.3 °C 1026 hPa ENE 8 km/h 14.5 km/h 71 % 0 mm 0 W/m2
20:28 8.2 °C 3.3 °C 1026 hPa ENE 8 km/h 14.5 km/h 71 % 0 mm 0 W/m2
20:33 8.1 °C 3.2 °C 1026 hPa ENE 6.4 km/h 14.5 km/h 71 % 0 mm 0 W/m2
20:35 8.1 °C 3.2 °C 1026.3 hPa ENE 6.4 km/h 14.5 km/h 71 % 0 mm 0 W/m2
20:40 7.9 °C 3.2 °C 1026.3 hPa ENE 6.4 km/h 14.5 km/h 72 % 0 mm 0 W/m2
20:45 7.8 °C 3.1 °C 1026.3 hPa East 4.8 km/h 12.9 km/h 72 % 0 mm 0 W/m2
20:50 7.8 °C 3.1 °C 1026.3 hPa East 3.2 km/h 12.9 km/h 72 % 0 mm 0 W/m2
20:55 7.7 °C 3.2 °C 1026.3 hPa ENE 3.2 km/h 11.3 km/h 73 % 0 mm 0 W/m2
21:00 7.6 °C 3.3 °C 1026.3 hPa ENE 3.2 km/h 12.9 km/h 74 % 0 mm 0 W/m2
21:05 7.4 °C 3.1 °C 1026.3 hPa ENE 4.8 km/h 12.9 km/h 74 % 0 mm 0 W/m2
21:10 7.3 °C 3.3 °C 1026.3 hPa ENE 4.8 km/h 11.3 km/h 76 % 0 mm 0 W/m2
21:15 7.2 °C 3.4 °C 1026.3 hPa ENE 6.4 km/h 17.7 km/h 77 % 0 mm 0 W/m2
21:20 7.2 °C 3.4 °C 1026.3 hPa ENE 8 km/h 17.7 km/h 77 % 0 mm 0 W/m2
21:25 7.1 °C 3.7 °C 1026.3 hPa ENE 8 km/h 16.1 km/h 79 % 0 mm 0 W/m2
21:30 7 °C 3.8 °C 1026.3 hPa ENE 8 km/h 19.3 km/h 80 % 0 mm 0 W/m2
21:35 6.9 °C 3.7 °C 1026.6 hPa ENE 6.4 km/h 19.3 km/h 80 % 0 mm 0 W/m2
21:40 6.8 °C 3.8 °C 1026.6 hPa ENE 6.4 km/h 16.1 km/h 81 % 0 mm 0 W/m2
21:45 6.7 °C 3.8 °C 1026.6 hPa ENE 8 km/h 16.1 km/h 82 % 0 mm 0 W/m2
21:50 6.6 °C 3.7 °C 1026.6 hPa ENE 8 km/h 20.9 km/h 82 % 0 mm 0 W/m2
21:55 6.6 °C 4.1 °C 1026.6 hPa East 9.7 km/h 20.9 km/h 84 % 0 mm 0 W/m2
22:00 6.6 °C 4.3 °C 1026.6 hPa ENE 9.7 km/h 17.7 km/h 85 % 0 mm 0 W/m2
22:05 6.6 °C 4.4 °C 1026.6 hPa East 9.7 km/h 17.7 km/h 86 % 0 mm 0 W/m2
22:10 6.6 °C 4.6 °C 1027 hPa East 9.7 km/h 17.7 km/h 87 % 0 mm 0 W/m2
22:15 6.6 °C 4.8 °C 1026.6 hPa East 8 km/h 19.3 km/h 88 % 0 mm 0 W/m2
22:20 6.6 °C 4.8 °C 1026.6 hPa East 8 km/h 19.3 km/h 88 % 0 mm 0 W/m2
22:25 6.6 °C 4.9 °C 1027 hPa East 9.7 km/h 19.3 km/h 89 % 0 mm 0 W/m2
22:30 6.6 °C 4.9 °C 1027 hPa East 9.7 km/h 20.9 km/h 89 % 0 mm 0 W/m2
22:35 6.6 °C 4.9 °C 1027 hPa East 9.7 km/h 20.9 km/h 89 % 0 mm 0 W/m2
22:40 6.6 °C 4.8 °C 1027 hPa East 9.7 km/h 17.7 km/h 88 % 0 mm 0 W/m2
22:45 6.7 °C 4.8 °C 1027 hPa East 8 km/h 16.1 km/h 88 % 0 mm 0 W/m2
22:50 6.7 °C 4.8 °C 1027 hPa ESE 9.7 km/h 17.7 km/h 88 % 0 mm 0 W/m2
22:56 6.7 °C 4.7 °C 1027 hPa ESE 12.9 km/h 25.7 km/h 87 % 0 mm 0 W/m2
23:01 6.6 °C 4.6 °C 1027 hPa ESE 12.9 km/h 25.7 km/h 87 % 0 mm 0 W/m2
23:06 6.6 °C 4.6 °C 1027 hPa ESE 9.7 km/h 20.9 km/h 87 % 0 mm 0 W/m2
23:11 6.7 °C 4.7 °C 1027 hPa ESE 8 km/h 16.1 km/h 87 % 0 mm 0 W/m2
23:16 6.7 °C 4.7 °C 1026.6 hPa East 9.7 km/h 17.7 km/h 87 % 0 mm 0 W/m2
23:21 6.7 °C 4.7 °C 1026.6 hPa East 8 km/h 17.7 km/h 87 % 0 mm 0 W/m2
23:26 6.7 °C 4.7 °C 1026.6 hPa ESE 8 km/h 17.7 km/h 87 % 0 mm 0 W/m2
23:31 6.7 °C 4.7 °C 1026.6 hPa ESE 8 km/h 17.7 km/h 87 % 0 mm 0 W/m2
23:36 6.7 °C 4.7 °C 1026.6 hPa East 4.8 km/h 16.1 km/h 87 % 0 mm 0 W/m2
23:41 6.8 °C 4.8 °C 1026.6 hPa East 3.2 km/h 11.3 km/h 87 % 0 mm 0 W/m2
23:46 6.8 °C 4.8 °C 1026.6 hPa East 3.2 km/h 11.3 km/h 87 % 0 mm 0 W/m2
23:51 6.7 °C 4.7 °C 1026.6 hPa East 6.4 km/h 19.3 km/h 87 % 0 mm 0 W/m2
23:56 6.7 °C 4.7 °C 1026.6 hPa ESE 9.7 km/h 19.3 km/h 87 % 0 mm 0 W/m2
Delerius-Weather
Compliments of Weather Underground - 2.25 mb

Data updates at regular intervals.